sensor_id;sensor_type;location;lat;lon;timestamp;temperature;humidity
6964;DHT22;3522;50.856;7.278;2023-07-13T00:00:34;17.70;99.90
6964;DHT22;3522;50.856;7.278;2023-07-13T00:03:01;17.70;99.90
6964;DHT22;3522;50.856;7.278;2023-07-13T00:05:28;17.60;99.90
6964;DHT22;3522;50.856;7.278;2023-07-13T00:07:56;17.50;99.90
6964;DHT22;3522;50.856;7.278;2023-07-13T00:10:22;17.50;99.90
6964;DHT22;3522;50.856;7.278;2023-07-13T00:12:49;17.50;99.90
6964;DHT22;3522;50.856;7.278;2023-07-13T00:15:17;17.40;99.90
6964;DHT22;3522;50.856;7.278;2023-07-13T00:17:48;17.40;99.90
6964;DHT22;3522;50.856;7.278;2023-07-13T00:20:14;17.30;99.90
6964;DHT22;3522;50.856;7.278;2023-07-13T00:22:41;17.20;99.90
6964;DHT22;3522;50.856;7.278;2023-07-13T00:25:09;17.20;99.90
6964;DHT22;3522;50.856;7.278;2023-07-13T00:27:36;17.10;99.90
6964;DHT22;3522;50.856;7.278;2023-07-13T00:30:03;17.10;99.90
6964;DHT22;3522;50.856;7.278;2023-07-13T00:32:30;17.10;99.90
6964;DHT22;3522;50.856;7.278;2023-07-13T00:34:57;17.10;99.90
6964;DHT22;3522;50.856;7.278;2023-07-13T00:37:25;16.90;99.90
6964;DHT22;3522;50.856;7.278;2023-07-13T00:39:52;16.80;99.90
6964;DHT22;3522;50.856;7.278;2023-07-13T00:42:20;16.60;99.90
6964;DHT22;3522;50.856;7.278;2023-07-13T00:47:28;16.40;99.90
6964;DHT22;3522;50.856;7.278;2023-07-13T00:49:54;16.40;99.90
6964;DHT22;3522;50.856;7.278;2023-07-13T00:52:21;16.40;99.90
6964;DHT22;3522;50.856;7.278;2023-07-13T00:54:47;16.30;99.90
6964;DHT22;3522;50.856;7.278;2023-07-13T00:57:15;16.20;99.90
6964;DHT22;3522;50.856;7.278;2023-07-13T00:59:47;16.10;99.90
6964;DHT22;3522;50.856;7.278;2023-07-13T01:02:14;16.10;99.90
6964;DHT22;3522;50.856;7.278;2023-07-13T01:04:41;16.10;99.90
6964;DHT22;3522;50.856;7.278;2023-07-13T01:07:09;16.10;99.90
6964;DHT22;3522;50.856;7.278;2023-07-13T01:09:36;16.00;99.90
6964;DHT22;3522;50.856;7.278;2023-07-13T01:12:03;16.00;99.90
6964;DHT22;3522;50.856;7.278;2023-07-13T01:14:30;16.00;99.90
6964;DHT22;3522;50.856;7.278;2023-07-13T01:16:58;16.00;99.90
6964;DHT22;3522;50.856;7.278;2023-07-13T01:19:28;16.00;99.90
6964;DHT22;3522;50.856;7.278;2023-07-13T01:22:02;16.00;99.90
6964;DHT22;3522;50.856;7.278;2023-07-13T01:24:29;16.00;99.90
6964;DHT22;3522;50.856;7.278;2023-07-13T01:26:59;15.90;99.90
6964;DHT22;3522;50.856;7.278;2023-07-13T01:29:25;15.90;99.90
6964;DHT22;3522;50.856;7.278;2023-07-13T01:31:52;15.90;99.90
6964;DHT22;3522;50.856;7.278;2023-07-13T01:34:18;15.90;99.90
6964;DHT22;3522;50.856;7.278;2023-07-13T01:36:45;15.80;99.90
6964;DHT22;3522;50.856;7.278;2023-07-13T01:39:13;15.80;99.90
6964;DHT22;3522;50.856;7.278;2023-07-13T01:41:40;15.90;99.90
6964;DHT22;3522;50.856;7.278;2023-07-13T01:44:06;15.90;99.90
6964;DHT22;3522;50.856;7.278;2023-07-13T01:46:33;15.90;99.90
6964;DHT22;3522;50.856;7.278;2023-07-13T01:48:59;16.00;99.90
6964;DHT22;3522;50.856;7.278;2023-07-13T01:51:26;16.00;99.90
6964;DHT22;3522;50.856;7.278;2023-07-13T01:53:52;16.00;99.90
6964;DHT22;3522;50.856;7.278;2023-07-13T01:56:20;16.00;99.90
6964;DHT22;3522;50.856;7.278;2023-07-13T01:58:47;16.00;99.90
6964;DHT22;3522;50.856;7.278;2023-07-13T02:01:14;16.00;99.90
6964;DHT22;3522;50.856;7.278;2023-07-13T02:03:40;16.10;99.90
6964;DHT22;3522;50.856;7.278;2023-07-13T02:06:07;16.10;99.90
6964;DHT22;3522;50.856;7.278;2023-07-13T02:08:33;16.10;99.90
6964;DHT22;3522;50.856;7.278;2023-07-13T02:11:02;16.10;99.90
6964;DHT22;3522;50.856;7.278;2023-07-13T02:13:30;16.10;99.90
6964;DHT22;3522;50.856;7.278;2023-07-13T02:15:56;16.10;99.90
6964;DHT22;3522;50.856;7.278;2023-07-13T02:18:23;16.10;99.90
6964;DHT22;3522;50.856;7.278;2023-07-13T02:20:49;16.20;99.90
6964;DHT22;3522;50.856;7.278;2023-07-13T02:23:16;16.10;99.90
6964;DHT22;3522;50.856;7.278;2023-07-13T02:25:42;16.10;99.90
6964;DHT22;3522;50.856;7.278;2023-07-13T02:28:09;16.10;99.90
6964;DHT22;3522;50.856;7.278;2023-07-13T02:30:37;16.10;99.90
6964;DHT22;3522;50.856;7.278;2023-07-13T02:33:04;16.10;99.90
6964;DHT22;3522;50.856;7.278;2023-07-13T02:35:31;16.10;99.90
6964;DHT22;3522;50.856;7.278;2023-07-13T02:37:57;16.10;99.90
6964;DHT22;3522;50.856;7.278;2023-07-13T02:40:24;16.10;99.90
6964;DHT22;3522;50.856;7.278;2023-07-13T02:42:51;16.20;99.90
6964;DHT22;3522;50.856;7.278;2023-07-13T02:45:18;16.20;99.90
6964;DHT22;3522;50.856;7.278;2023-07-13T02:47:46;16.20;99.90
6964;DHT22;3522;50.856;7.278;2023-07-13T02:50:12;16.20;99.90
6964;DHT22;3522;50.856;7.278;2023-07-13T02:52:38;16.20;99.90
6964;DHT22;3522;50.856;7.278;2023-07-13T02:55:04;16.10;99.90
6964;DHT22;3522;50.856;7.278;2023-07-13T02:57:31;16.10;99.90
6964;DHT22;3522;50.856;7.278;2023-07-13T02:59:59;16.10;99.90
6964;DHT22;3522;50.856;7.278;2023-07-13T03:02:26;16.10;99.90
6964;DHT22;3522;50.856;7.278;2023-07-13T03:04:55;16.10;99.90
6964;DHT22;3522;50.856;7.278;2023-07-13T03:07:21;16.10;99.90
6964;DHT22;3522;50.856;7.278;2023-07-13T03:09:48;16.10;99.90
6964;DHT22;3522;50.856;7.278;2023-07-13T03:12:14;16.10;99.90
6964;DHT22;3522;50.856;7.278;2023-07-13T03:14:41;16.10;99.90
6964;DHT22;3522;50.856;7.278;2023-07-13T03:17:07;16.10;99.90
6964;DHT22;3522;50.856;7.278;2023-07-13T03:19:34;16.10;99.90
6964;DHT22;3522;50.856;7.278;2023-07-13T03:22:02;16.10;99.90
6964;DHT22;3522;50.856;7.278;2023-07-13T03:24:29;16.00;99.90
6964;DHT22;3522;50.856;7.278;2023-07-13T03:26:55;16.00;99.90
6964;DHT22;3522;50.856;7.278;2023-07-13T03:29:22;16.10;99.90
6964;DHT22;3522;50.856;7.278;2023-07-13T03:31:48;15.90;99.90
6964;DHT22;3522;50.856;7.278;2023-07-13T03:34:15;15.90;99.90
6964;DHT22;3522;50.856;7.278;2023-07-13T03:36:42;15.90;99.90
6964;DHT22;3522;50.856;7.278;2023-07-13T03:39:09;15.80;99.90
6964;DHT22;3522;50.856;7.278;2023-07-13T03:41:36;15.80;99.90
6964;DHT22;3522;50.856;7.278;2023-07-13T03:44:03;15.90;99.90
6964;DHT22;3522;50.856;7.278;2023-07-13T03:46:29;15.70;99.90
6964;DHT22;3522;50.856;7.278;2023-07-13T03:48:56;15.70;99.90
6964;DHT22;3522;50.856;7.278;2023-07-13T03:51:22;15.70;99.90
6964;DHT22;3522;50.856;7.278;2023-07-13T03:53:49;15.70;99.90
6964;DHT22;3522;50.856;7.278;2023-07-13T03:56:17;15.70;99.90
6964;DHT22;3522;50.856;7.278;2023-07-13T03:58:45;15.60;99.90
6964;DHT22;3522;50.856;7.278;2023-07-13T04:01:12;15.70;99.90
6964;DHT22;3522;50.856;7.278;2023-07-13T04:03:39;15.60;99.90
6964;DHT22;3522;50.856;7.278;2023-07-13T04:06:07;15.60;99.90
6964;DHT22;3522;50.856;7.278;2023-07-13T04:08:36;15.70;99.90
6964;DHT22;3522;50.856;7.278;2023-07-13T04:11:03;15.70;99.90
6964;DHT22;3522;50.856;7.278;2023-07-13T04:13:31;15.80;99.90
6964;DHT22;3522;50.856;7.278;2023-07-13T04:15:58;15.70;99.90
6964;DHT22;3522;50.856;7.278;2023-07-13T04:18:24;15.80;99.90
6964;DHT22;3522;50.856;7.278;2023-07-13T04:20:51;15.80;99.90
6964;DHT22;3522;50.856;7.278;2023-07-13T04:23:18;15.80;99.90
6964;DHT22;3522;50.856;7.278;2023-07-13T04:25:45;15.80;99.90
6964;DHT22;3522;50.856;7.278;2023-07-13T04:28:14;15.80;99.90
6964;DHT22;3522;50.856;7.278;2023-07-13T04:30:42;15.70;99.90
6964;DHT22;3522;50.856;7.278;2023-07-13T04:33:09;15.80;99.90
6964;DHT22;3522;50.856;7.278;2023-07-13T04:35:35;15.80;99.90
6964;DHT22;3522;50.856;7.278;2023-07-13T04:38:02;15.80;99.90
6964;DHT22;3522;50.856;7.278;2023-07-13T04:40:29;15.80;99.90
6964;DHT22;3522;50.856;7.278;2023-07-13T04:42:56;15.80;99.90
6964;DHT22;3522;50.856;7.278;2023-07-13T04:45:24;15.70;99.90
6964;DHT22;3522;50.856;7.278;2023-07-13T04:47:52;15.70;99.90
6964;DHT22;3522;50.856;7.278;2023-07-13T04:50:18;15.70;99.90
6964;DHT22;3522;50.856;7.278;2023-07-13T04:52:48;15.70;99.90
6964;DHT22;3522;50.856;7.278;2023-07-13T04:55:15;15.80;99.90
6964;DHT22;3522;50.856;7.278;2023-07-13T04:57:42;15.80;99.90
6964;DHT22;3522;50.856;7.278;2023-07-13T05:00:08;15.80;99.90
6964;DHT22;3522;50.856;7.278;2023-07-13T05:02:37;15.90;99.90
6964;DHT22;3522;50.856;7.278;2023-07-13T05:05:05;15.90;99.90
6964;DHT22;3522;50.856;7.278;2023-07-13T05:07:32;16.00;99.90
6964;DHT22;3522;50.856;7.278;2023-07-13T05:09:59;16.00;99.90
6964;DHT22;3522;50.856;7.278;2023-07-13T05:12:25;16.00;99.90
6964;DHT22;3522;50.856;7.278;2023-07-13T05:14:52;15.90;99.90
6964;DHT22;3522;50.856;7.278;2023-07-13T05:17:19;16.00;99.90
6964;DHT22;3522;50.856;7.278;2023-07-13T05:19:45;16.00;99.90
6964;DHT22;3522;50.856;7.278;2023-07-13T05:22:13;16.10;99.90
6964;DHT22;3522;50.856;7.278;2023-07-13T05:24:40;16.10;99.90
6964;DHT22;3522;50.856;7.278;2023-07-13T05:27:07;16.20;99.90
6964;DHT22;3522;50.856;7.278;2023-07-13T05:29:33;16.20;99.90
6964;DHT22;3522;50.856;7.278;2023-07-13T05:32:00;16.20;99.90
6964;DHT22;3522;50.856;7.278;2023-07-13T05:34:26;16.20;99.90
6964;DHT22;3522;50.856;7.278;2023-07-13T05:36:53;16.40;99.90
6964;DHT22;3522;50.856;7.278;2023-07-13T05:39:21;16.40;99.90
6964;DHT22;3522;50.856;7.278;2023-07-13T05:41:47;16.50;99.90
6964;DHT22;3522;50.856;7.278;2023-07-13T05:44:14;16.50;99.90
6964;DHT22;3522;50.856;7.278;2023-07-13T05:46:41;16.70;99.90
6964;DHT22;3522;50.856;7.278;2023-07-13T05:49:07;16.90;99.90
6964;DHT22;3522;50.856;7.278;2023-07-13T05:51:34;16.80;99.90
6964;DHT22;3522;50.856;7.278;2023-07-13T05:54:00;17.00;99.90
6964;DHT22;3522;50.856;7.278;2023-07-13T05:56:28;17.20;99.90
6964;DHT22;3522;50.856;7.278;2023-07-13T05:58:55;17.40;99.90
6964;DHT22;3522;50.856;7.278;2023-07-13T06:01:22;17.70;99.90
6964;DHT22;3522;50.856;7.278;2023-07-13T06:03:49;17.90;99.90
6964;DHT22;3522;50.856;7.278;2023-07-13T06:06:15;18.20;99.90
6964;DHT22;3522;50.856;7.278;2023-07-13T06:08:42;18.30;99.90
6964;DHT22;3522;50.856;7.278;2023-07-13T06:11:10;18.60;99.90
6964;DHT22;3522;50.856;7.278;2023-07-13T06:13:39;18.80;99.90
6964;DHT22;3522;50.856;7.278;2023-07-13T06:16:05;18.80;99.90
6964;DHT22;3522;50.856;7.278;2023-07-13T06:18:34;18.90;99.90
6964;DHT22;3522;50.856;7.278;2023-07-13T06:21:00;18.90;99.90
6964;DHT22;3522;50.856;7.278;2023-07-13T06:23:27;19.20;99.90
6964;DHT22;3522;50.856;7.278;2023-07-13T06:25:54;19.40;99.90
6964;DHT22;3522;50.856;7.278;2023-07-13T06:28:20;19.60;99.90
6964;DHT22;3522;50.856;7.278;2023-07-13T06:30:48;19.50;99.90
6964;DHT22;3522;50.856;7.278;2023-07-13T06:33:14;19.20;99.90
6964;DHT22;3522;50.856;7.278;2023-07-13T06:35:42;19.50;99.90
6964;DHT22;3522;50.856;7.278;2023-07-13T06:38:08;19.70;99.90
6964;DHT22;3522;50.856;7.278;2023-07-13T06:40:35;19.90;99.90
6964;DHT22;3522;50.856;7.278;2023-07-13T06:43:01;19.90;99.90
6964;DHT22;3522;50.856;7.278;2023-07-13T06:47:57;20.40;99.90
6964;DHT22;3522;50.856;7.278;2023-07-13T06:50:24;20.40;99.90
6964;DHT22;3522;50.856;7.278;2023-07-13T06:52:50;20.30;99.90
6964;DHT22;3522;50.856;7.278;2023-07-13T06:55:18;20.00;99.90
6964;DHT22;3522;50.856;7.278;2023-07-13T06:57:44;20.20;99.90
6964;DHT22;3522;50.856;7.278;2023-07-13T07:00:11;20.30;99.90
6964;DHT22;3522;50.856;7.278;2023-07-13T07:02:38;20.60;99.90
6964;DHT22;3522;50.856;7.278;2023-07-13T07:05:06;20.70;99.90
6964;DHT22;3522;50.856;7.278;2023-07-13T07:07:33;21.00;99.90
6964;DHT22;3522;50.856;7.278;2023-07-13T07:09:59;21.30;99.90
6964;DHT22;3522;50.856;7.278;2023-07-13T07:12:26;21.40;99.90
6964;DHT22;3522;50.856;7.278;2023-07-13T07:14:52;21.40;99.90
6964;DHT22;3522;50.856;7.278;2023-07-13T07:17:19;21.60;99.90
6964;DHT22;3522;50.856;7.278;2023-07-13T07:19:46;21.90;99.90
6964;DHT22;3522;50.856;7.278;2023-07-13T07:22:14;22.40;99.90
6964;DHT22;3522;50.856;7.278;2023-07-13T07:24:40;22.30;99.90
6964;DHT22;3522;50.856;7.278;2023-07-13T07:27:07;21.90;99.90
6964;DHT22;3522;50.856;7.278;2023-07-13T07:29:33;21.80;99.90
6964;DHT22;3522;50.856;7.278;2023-07-13T07:32:00;22.10;99.90
6964;DHT22;3522;50.856;7.278;2023-07-13T07:34:26;22.30;99.90
6964;DHT22;3522;50.856;7.278;2023-07-13T07:36:53;22.60;99.90
6964;DHT22;3522;50.856;7.278;2023-07-13T07:39:21;23.00;99.90
6964;DHT22;3522;50.856;7.278;2023-07-13T07:41:47;22.90;99.90
6964;DHT22;3522;50.856;7.278;2023-07-13T07:44:14;22.70;99.90
6964;DHT22;3522;50.856;7.278;2023-07-13T07:46:40;22.70;99.90
6964;DHT22;3522;50.856;7.278;2023-07-13T07:49:07;22.70;99.90
6964;DHT22;3522;50.856;7.278;2023-07-13T07:51:34;22.50;99.90
6964;DHT22;3522;50.856;7.278;2023-07-13T07:54:00;22.50;99.90
6964;DHT22;3522;50.856;7.278;2023-07-13T07:56:28;22.60;99.90
6964;DHT22;3522;50.856;7.278;2023-07-13T07:58:55;22.70;99.90
6964;DHT22;3522;50.856;7.278;2023-07-13T08:01:21;22.90;99.90
6964;DHT22;3522;50.856;7.278;2023-07-13T08:03:48;22.80;99.90
6964;DHT22;3522;50.856;7.278;2023-07-13T08:06:15;22.90;99.90
6964;DHT22;3522;50.856;7.278;2023-07-13T08:08:41;23.20;99.90
6964;DHT22;3522;50.856;7.278;2023-07-13T08:11:08;23.60;99.90
6964;DHT22;3522;50.856;7.278;2023-07-13T08:13:37;23.40;99.90
6964;DHT22;3522;50.856;7.278;2023-07-13T08:16:04;23.40;99.90
6964;DHT22;3522;50.856;7.278;2023-07-13T08:18:31;23.40;99.90
6964;DHT22;3522;50.856;7.278;2023-07-13T08:20:58;23.00;99.90
6964;DHT22;3522;50.856;7.278;2023-07-13T08:23:25;22.70;99.90
6964;DHT22;3522;50.856;7.278;2023-07-13T08:25:52;22.80;99.90
6964;DHT22;3522;50.856;7.278;2023-07-13T08:28:19;22.90;99.90
6964;DHT22;3522;50.856;7.278;2023-07-13T08:30:47;22.80;99.90
6964;DHT22;3522;50.856;7.278;2023-07-13T08:33:14;23.00;99.90
6964;DHT22;3522;50.856;7.278;2023-07-13T08:35:41;23.10;99.90
6964;DHT22;3522;50.856;7.278;2023-07-13T08:38:08;23.00;99.90
6964;DHT22;3522;50.856;7.278;2023-07-13T08:40:34;23.00;99.90
6964;DHT22;3522;50.856;7.278;2023-07-13T08:43:01;23.10;99.90
6964;DHT22;3522;50.856;7.278;2023-07-13T08:45:30;23.30;99.90
6964;DHT22;3522;50.856;7.278;2023-07-13T08:47:59;23.10;99.90
6964;DHT22;3522;50.856;7.278;2023-07-13T08:50:29;23.30;99.90
6964;DHT22;3522;50.856;7.278;2023-07-13T08:52:57;23.40;99.90
6964;DHT22;3522;50.856;7.278;2023-07-13T08:55:26;23.80;99.90
6964;DHT22;3522;50.856;7.278;2023-07-13T08:57:56;23.70;99.90
6964;DHT22;3522;50.856;7.278;2023-07-13T09:00:24;23.70;99.90
6964;DHT22;3522;50.856;7.278;2023-07-13T09:02:54;23.80;99.90
6964;DHT22;3522;50.856;7.278;2023-07-13T09:05:24;24.10;99.90
6964;DHT22;3522;50.856;7.278;2023-07-13T09:08:00;24.40;99.90
6964;DHT22;3522;50.856;7.278;2023-07-13T09:10:30;24.70;98.90
6964;DHT22;3522;50.856;7.278;2023-07-13T09:13:02;25.00;99.80
6964;DHT22;3522;50.856;7.278;2023-07-13T09:15:34;24.90;99.10
6964;DHT22;3522;50.856;7.278;2023-07-13T09:18:03;25.10;98.50
6964;DHT22;3522;50.856;7.278;2023-07-13T09:20:34;24.70;99.40
6964;DHT22;3522;50.856;7.278;2023-07-13T09:23:01;24.30;99.50
6964;DHT22;3522;50.856;7.278;2023-07-13T09:25:30;23.70;99.90
6964;DHT22;3522;50.856;7.278;2023-07-13T09:27:58;23.40;99.90
6964;DHT22;3522;50.856;7.278;2023-07-13T09:30:30;23.30;99.90
6964;DHT22;3522;50.856;7.278;2023-07-13T09:32:59;23.30;99.90
6964;DHT22;3522;50.856;7.278;2023-07-13T09:35:27;23.40;99.90
6964;DHT22;3522;50.856;7.278;2023-07-13T09:37:59;23.60;99.90
6964;DHT22;3522;50.856;7.278;2023-07-13T09:40:28;23.70;99.90
6964;DHT22;3522;50.856;7.278;2023-07-13T09:42:56;23.80;99.90
6964;DHT22;3522;50.856;7.278;2023-07-13T09:45:28;23.80;99.90
6964;DHT22;3522;50.856;7.278;2023-07-13T09:47:58;23.80;99.90
6964;DHT22;3522;50.856;7.278;2023-07-13T09:50:25;24.10;99.90
6964;DHT22;3522;50.856;7.278;2023-07-13T09:52:54;24.50;99.90
6964;DHT22;3522;50.856;7.278;2023-07-13T09:55:26;24.60;99.60
6964;DHT22;3522;50.856;7.278;2023-07-13T09:57:53;24.90;99.90
6964;DHT22;3522;50.856;7.278;2023-07-13T10:00:21;24.70;99.90
6964;DHT22;3522;50.856;7.278;2023-07-13T10:02:49;24.90;99.90
6964;DHT22;3522;50.856;7.278;2023-07-13T10:05:24;25.10;99.90
6964;DHT22;3522;50.856;7.278;2023-07-13T10:07:51;25.30;99.90
6964;DHT22;3522;50.856;7.278;2023-07-13T10:10:18;25.50;99.10
6964;DHT22;3522;50.856;7.278;2023-07-13T10:12:46;25.70;99.80
6964;DHT22;3522;50.856;7.278;2023-07-13T10:15:14;25.90;99.90
6964;DHT22;3522;50.856;7.278;2023-07-13T10:17:41;26.00;99.90
6964;DHT22;3522;50.856;7.278;2023-07-13T10:20:09;26.30;98.70
6964;DHT22;3522;50.856;7.278;2023-07-13T10:22:39;26.40;97.50
6964;DHT22;3522;50.856;7.278;2023-07-13T10:25:15;26.30;97.50
6964;DHT22;3522;50.856;7.278;2023-07-13T10:27:43;26.20;99.20
6964;DHT22;3522;50.856;7.278;2023-07-13T10:30:14;25.80;98.30
6964;DHT22;3522;50.856;7.278;2023-07-13T10:32:41;25.30;98.80
6964;DHT22;3522;50.856;7.278;2023-07-13T10:35:09;24.80;99.90
6964;DHT22;3522;50.856;7.278;2023-07-13T10:37:39;24.50;99.90
6964;DHT22;3522;50.856;7.278;2023-07-13T10:40:11;24.30;99.90
6964;DHT22;3522;50.856;7.278;2023-07-13T10:42:39;24.20;99.90
6964;DHT22;3522;50.856;7.278;2023-07-13T10:45:12;24.00;99.90
6964;DHT22;3522;50.856;7.278;2023-07-13T10:47:39;23.80;99.90
6964;DHT22;3522;50.856;7.278;2023-07-13T10:50:08;23.60;99.90
6964;DHT22;3522;50.856;7.278;2023-07-13T10:52:42;23.30;99.90
6964;DHT22;3522;50.856;7.278;2023-07-13T10:57:51;22.90;99.90
6964;DHT22;3522;50.856;7.278;2023-07-13T11:00:19;23.20;99.90
6964;DHT22;3522;50.856;7.278;2023-07-13T11:02:55;23.60;99.90
6964;DHT22;3522;50.856;7.278;2023-07-13T11:05:25;24.00;99.90
6964;DHT22;3522;50.856;7.278;2023-07-13T11:07:54;24.20;99.90
6964;DHT22;3522;50.856;7.278;2023-07-13T11:13:03;24.30;99.90
6964;DHT22;3522;50.856;7.278;2023-07-13T11:15:32;24.10;99.90
6964;DHT22;3522;50.856;7.278;2023-07-13T11:18:02;24.00;99.90
6964;DHT22;3522;50.856;7.278;2023-07-13T11:20:33;23.80;99.90
6964;DHT22;3522;50.856;7.278;2023-07-13T11:23:08;23.70;99.90
6964;DHT22;3522;50.856;7.278;2023-07-13T11:25:36;23.80;99.60
6964;DHT22;3522;50.856;7.278;2023-07-13T11:28:04;23.70;99.90
6964;DHT22;3522;50.856;7.278;2023-07-13T11:30:34;23.50;99.90
6964;DHT22;3522;50.856;7.278;2023-07-13T11:33:02;23.30;99.90
6964;DHT22;3522;50.856;7.278;2023-07-13T11:35:32;23.10;99.90
6964;DHT22;3522;50.856;7.278;2023-07-13T11:37:59;22.90;99.90
6964;DHT22;3522;50.856;7.278;2023-07-13T11:40:26;22.80;98.40
6964;DHT22;3522;50.856;7.278;2023-07-13T11:42:58;22.90;99.90
6964;DHT22;3522;50.856;7.278;2023-07-13T11:45:25;22.80;99.90
6964;DHT22;3522;50.856;7.278;2023-07-13T11:47:54;23.00;99.90
6964;DHT22;3522;50.856;7.278;2023-07-13T11:50:23;23.10;99.90
6964;DHT22;3522;50.856;7.278;2023-07-13T11:52:50;23.00;99.90
6964;DHT22;3522;50.856;7.278;2023-07-13T11:55:20;22.90;99.90
6964;DHT22;3522;50.856;7.278;2023-07-13T11:57:49;22.90;98.40
6964;DHT22;3522;50.856;7.278;2023-07-13T12:00:17;22.70;99.90
6964;DHT22;3522;50.856;7.278;2023-07-13T12:02:45;22.60;99.70
6964;DHT22;3522;50.856;7.278;2023-07-13T12:05:14;22.70;99.80
6964;DHT22;3522;50.856;7.278;2023-07-13T12:07:43;22.70;99.90
6964;DHT22;3522;50.856;7.278;2023-07-13T12:10:15;22.90;99.90
6964;DHT22;3522;50.856;7.278;2023-07-13T12:12:46;23.00;99.90
6964;DHT22;3522;50.856;7.278;2023-07-13T12:15:13;22.90;99.90
6964;DHT22;3522;50.856;7.278;2023-07-13T12:17:40;22.70;99.90
6964;DHT22;3522;50.856;7.278;2023-07-13T12:20:14;22.50;99.90
6964;DHT22;3522;50.856;7.278;2023-07-13T12:22:46;22.50;99.90
6964;DHT22;3522;50.856;7.278;2023-07-13T12:25:13;22.50;99.90
6964;DHT22;3522;50.856;7.278;2023-07-13T12:27:40;22.50;99.90
6964;DHT22;3522;50.856;7.278;2023-07-13T12:30:24;22.40;99.90
6964;DHT22;3522;50.856;7.278;2023-07-13T12:32:58;22.40;99.90
6964;DHT22;3522;50.856;7.278;2023-07-13T12:35:25;22.40;99.90
6964;DHT22;3522;50.856;7.278;2023-07-13T12:37:54;22.30;99.90
6964;DHT22;3522;50.856;7.278;2023-07-13T12:40:20;22.50;99.90
6964;DHT22;3522;50.856;7.278;2023-07-13T12:42:48;22.50;99.90
6964;DHT22;3522;50.856;7.278;2023-07-13T12:45:17;22.40;99.90
6964;DHT22;3522;50.856;7.278;2023-07-13T12:47:47;22.40;99.90
6964;DHT22;3522;50.856;7.278;2023-07-13T12:50:15;22.50;99.90
6964;DHT22;3522;50.856;7.278;2023-07-13T12:52:42;22.50;99.90
6964;DHT22;3522;50.856;7.278;2023-07-13T12:55:12;22.50;99.90
6964;DHT22;3522;50.856;7.278;2023-07-13T12:57:40;22.40;99.90
6964;DHT22;3522;50.856;7.278;2023-07-13T13:00:24;22.30;99.90
6964;DHT22;3522;50.856;7.278;2023-07-13T13:02:52;22.30;99.90
6964;DHT22;3522;50.856;7.278;2023-07-13T13:05:19;22.40;99.90
6964;DHT22;3522;50.856;7.278;2023-07-13T13:07:48;22.50;98.60
6964;DHT22;3522;50.856;7.278;2023-07-13T13:10:17;22.70;99.90
6964;DHT22;3522;50.856;7.278;2023-07-13T13:12:46;22.90;99.90
6964;DHT22;3522;50.856;7.278;2023-07-13T13:15:13;23.30;99.90
6964;DHT22;3522;50.856;7.278;2023-07-13T13:17:41;23.60;98.30
6964;DHT22;3522;50.856;7.278;2023-07-13T13:20:13;23.50;95.40
6964;DHT22;3522;50.856;7.278;2023-07-13T13:22:41;23.40;94.20
6964;DHT22;3522;50.856;7.278;2023-07-13T13:25:09;23.50;96.10
6964;DHT22;3522;50.856;7.278;2023-07-13T13:27:37;23.40;95.90
6964;DHT22;3522;50.856;7.278;2023-07-13T13:30:08;23.30;95.90
6964;DHT22;3522;50.856;7.278;2023-07-13T13:32:35;23.40;97.10
6964;DHT22;3522;50.856;7.278;2023-07-13T13:35:02;23.60;97.70
6964;DHT22;3522;50.856;7.278;2023-07-13T13:37:29;23.60;99.10
6964;DHT22;3522;50.856;7.278;2023-07-13T13:39:55;23.90;98.30
6964;DHT22;3522;50.856;7.278;2023-07-13T13:42:22;24.20;95.20
6964;DHT22;3522;50.856;7.278;2023-07-13T13:44:51;24.30;92.70
6964;DHT22;3522;50.856;7.278;2023-07-13T13:47:24;24.30;93.50
6964;DHT22;3522;50.856;7.278;2023-07-13T13:49:53;24.40;92.40
6964;DHT22;3522;50.856;7.278;2023-07-13T13:52:19;24.30;90.70
6964;DHT22;3522;50.856;7.278;2023-07-13T13:54:46;24.40;88.90
6964;DHT22;3522;50.856;7.278;2023-07-13T13:57:13;24.60;92.70
6964;DHT22;3522;50.856;7.278;2023-07-13T13:59:39;24.80;90.60
6964;DHT22;3522;50.856;7.278;2023-07-13T14:02:15;24.90;88.20
6964;DHT22;3522;50.856;7.278;2023-07-13T14:04:46;25.20;92.40
6964;DHT22;3522;50.856;7.278;2023-07-13T14:07:12;25.10;87.20
6964;DHT22;3522;50.856;7.278;2023-07-13T14:09:39;25.20;90.50
6964;DHT22;3522;50.856;7.278;2023-07-13T14:12:08;25.10;85.50
6964;DHT22;3522;50.856;7.278;2023-07-13T14:14:37;25.20;89.40
6964;DHT22;3522;50.856;7.278;2023-07-13T14:17:04;25.50;92.40
6964;DHT22;3522;50.856;7.278;2023-07-13T14:19:32;25.20;91.60
6964;DHT22;3522;50.856;7.278;2023-07-13T14:23:04;24.80;92.40
6964;DHT22;3522;50.856;7.278;2023-07-13T14:25:01;24.80;92.00
6964;DHT22;3522;50.856;7.278;2023-07-13T14:27:27;24.60;90.60
6964;DHT22;3522;50.856;7.278;2023-07-13T14:29:54;24.90;90.80
6964;DHT22;3522;50.856;7.278;2023-07-13T14:32:21;25.10;93.40
6964;DHT22;3522;50.856;7.278;2023-07-13T14:34:48;25.20;90.40
6964;DHT22;3522;50.856;7.278;2023-07-13T14:37:16;24.90;87.50
6964;DHT22;3522;50.856;7.278;2023-07-13T14:39:44;24.90;87.90
6964;DHT22;3522;50.856;7.278;2023-07-13T14:42:11;24.60;90.00
6964;DHT22;3522;50.856;7.278;2023-07-13T14:44:37;24.30;90.00
6964;DHT22;3522;50.856;7.278;2023-07-13T14:47:04;24.10;89.20
6964;DHT22;3522;50.856;7.278;2023-07-13T14:49:34;24.10;88.80
6964;DHT22;3522;50.856;7.278;2023-07-13T14:52:03;24.20;89.50
6964;DHT22;3522;50.856;7.278;2023-07-13T14:54:32;24.50;92.80
6964;DHT22;3522;50.856;7.278;2023-07-13T14:56:58;24.60;90.80
6964;DHT22;3522;50.856;7.278;2023-07-13T14:59:26;24.90;88.10
6964;DHT22;3522;50.856;7.278;2023-07-13T15:01:53;25.30;85.10
6964;DHT22;3522;50.856;7.278;2023-07-13T15:04:20;25.60;83.50
6964;DHT22;3522;50.856;7.278;2023-07-13T15:06:56;25.70;90.20
6964;DHT22;3522;50.856;7.278;2023-07-13T15:09:25;25.60;84.90
6964;DHT22;3522;50.856;7.278;2023-07-13T15:11:54;25.50;88.70
6964;DHT22;3522;50.856;7.278;2023-07-13T15:14:21;25.40;89.50
6964;DHT22;3522;50.856;7.278;2023-07-13T15:16:48;25.10;88.70
6964;DHT22;3522;50.856;7.278;2023-07-13T15:19:16;24.80;90.10
6964;DHT22;3522;50.856;7.278;2023-07-13T15:21:43;24.40;90.40
6964;DHT22;3522;50.856;7.278;2023-07-13T15:24:09;24.30;91.10
6964;DHT22;3522;50.856;7.278;2023-07-13T15:26:37;24.40;89.50
6964;DHT22;3522;50.856;7.278;2023-07-13T15:29:04;24.70;90.80
6964;DHT22;3522;50.856;7.278;2023-07-13T15:31:31;24.80;84.60
6964;DHT22;3522;50.856;7.278;2023-07-13T15:33:59;25.20;88.20
6964;DHT22;3522;50.856;7.278;2023-07-13T15:36:26;25.00;85.80
6964;DHT22;3522;50.856;7.278;2023-07-13T15:38:53;24.80;87.10
6964;DHT22;3522;50.856;7.278;2023-07-13T15:41:21;25.00;85.10
6964;DHT22;3522;50.856;7.278;2023-07-13T15:43:57;24.90;83.60
6964;DHT22;3522;50.856;7.278;2023-07-13T15:46:26;25.10;80.50
6964;DHT22;3522;50.856;7.278;2023-07-13T15:48:54;25.20;89.10
6964;DHT22;3522;50.856;7.278;2023-07-13T15:51:23;25.10;87.30
6964;DHT22;3522;50.856;7.278;2023-07-13T15:53:50;25.30;88.60
6964;DHT22;3522;50.856;7.278;2023-07-13T15:56:19;25.30;89.00
6964;DHT22;3522;50.856;7.278;2023-07-13T15:58:47;24.80;90.00
6964;DHT22;3522;50.856;7.278;2023-07-13T16:01:15;24.40;91.30
6964;DHT22;3522;50.856;7.278;2023-07-13T16:03:42;24.20;91.10
6964;DHT22;3522;50.856;7.278;2023-07-13T16:06:12;24.00;92.60
6964;DHT22;3522;50.856;7.278;2023-07-13T16:08:40;24.10;92.60
6964;DHT22;3522;50.856;7.278;2023-07-13T16:11:08;24.40;88.80
6964;DHT22;3522;50.856;7.278;2023-07-13T16:13:38;24.60;85.90
6964;DHT22;3522;50.856;7.278;2023-07-13T16:16:08;24.60;92.00